Time;durP1;ratioP1;P1;durP2;ratioP2;P2;SDS_P1;SDS_P2;PMS_P1;PMS_P2;Temp;Humidity;BMP_temperature;BMP_pressure;BME280_temperature;BME280_humidity;BME280_pressure;Samples;Min_cycle;Max_cycle;Signal;HPM_P1;HPM_P2
2022/10/31 00:00:51;;;;;;;65.20;38.97;;;;;;;;;;5052679;28;20113;-66
2022/10/31 00:03:17;;;;;;;63.05;37.00;;;;;;;;;;5052932;28;20523;-66
2022/10/31 00:05:47;;;;;;;58.30;36.15;;;;;;;;;;5052967;28;20025;-65
2022/10/31 00:08:13;;;;;;;65.13;36.95;;;;;;;;;;5053000;28;20116;-66
2022/10/31 00:10:39;;;;;;;65.07;35.50;;;;;;;;;;5052950;28;20053;-66
2022/10/31 00:13:05;;;;;;;61.63;35.75;;;;;;;;;;5052561;28;20060;-66
2022/10/31 00:15:39;;;;;;;63.45;36.03;;;;;;;;;;5052642;28;20029;-66
2022/10/31 00:18:06;;;;;;;56.15;36.05;;;;;;;;;;5052619;28;20036;-66
2022/10/31 00:20:32;;;;;;;55.90;36.15;;;;;;;;;;5052414;28;20154;-66
2022/10/31 00:22:59;;;;;;;63.65;36.85;;;;;;;;;;5052568;28;20021;-66
2022/10/31 00:25:25;;;;;;;56.53;35.28;;;;;;;;;;5051383;28;20115;-67
2022/10/31 00:27:51;;;;;;;59.45;36.20;;;;;;;;;;5052601;28;20170;-66
2022/10/31 00:30:16;;;;;;;66.30;38.75;;;;;;;;;;5052382;28;20120;-66
2022/10/31 00:32:42;;;;;;;67.20;40.17;;;;;;;;;;5052344;28;20032;-66
2022/10/31 00:35:07;;;;;;;61.67;38.05;;;;;;;;;;5052453;28;20052;-66
2022/10/31 00:37:33;;;;;;;64.35;39.35;;;;;;;;;;5052514;28;20111;-66
2022/10/31 00:39:58;;;;;;;69.55;40.72;;;;;;;;;;5052306;28;20021;-66
2022/10/31 00:42:24;;;;;;;72.68;43.25;;;;;;;;;;5052429;28;20029;-69
2022/10/31 00:44:50;;;;;;;70.60;41.92;;;;;;;;;;5052482;28;20029;-66
2022/10/31 00:47:15;;;;;;;68.32;41.30;;;;;;;;;;5052264;28;20140;-67
2022/10/31 00:49:41;;;;;;;73.93;40.97;;;;;;;;;;5052558;28;20028;-66
2022/10/31 00:52:06;;;;;;;77.72;42.40;;;;;;;;;;5052362;28;20059;-66
2022/10/31 00:54:32;;;;;;;90.30;45.65;;;;;;;;;;5052500;28;20416;-66
2022/10/31 00:56:57;;;;;;;164.40;48.53;;;;;;;;;;5052425;28;20059;-66
2022/10/31 00:59:23;;;;;;;163.00;48.03;;;;;;;;;;5052204;28;20414;-66
2022/10/31 01:01:48;;;;;;;116.60;42.35;;;;;;;;;;5052345;28;20031;-66
2022/10/31 01:04:14;;;;;;;171.80;41.83;;;;;;;;;;5052343;28;20033;-67
2022/10/31 01:06:39;;;;;;;92.63;35.88;;;;;;;;;;5052304;28;20132;-66
2022/10/31 01:09:05;;;;;;;164.02;37.47;;;;;;;;;;5052336;28;20025;-66
2022/10/31 01:11:31;;;;;;;77.47;33.60;;;;;;;;;;5052419;28;20029;-66
2022/10/31 01:13:56;;;;;;;59.70;33.97;;;;;;;;;;5051868;28;20115;-66
2022/10/31 01:16:24;;;;;;;76.85;38.60;;;;;;;;;;5052315;28;20067;-66
2022/10/31 01:18:49;;;;;;;70.28;34.70;;;;;;;;;;5052172;28;20025;-66
2022/10/31 01:21:23;;;;;;;55.50;32.42;;;;;;;;;;5052009;28;20086;-66
2022/10/31 01:23:48;;;;;;;53.13;32.85;;;;;;;;;;5051892;28;20029;-66
2022/10/31 01:26:17;;;;;;;53.63;31.30;;;;;;;;;;5051934;28;20436;-66
2022/10/31 01:28:55;;;;;;;54.85;30.48;;;;;;;;;;5052035;28;20467;-66
2022/10/31 01:31:25;;;;;;;48.30;31.08;;;;;;;;;;5052152;28;20025;-66
2022/10/31 01:33:50;;;;;;;58.67;33.35;;;;;;;;;;5054719;28;20491;-66
2022/10/31 01:36:20;;;;;;;63.75;35.83;;;;;;;;;;5055832;28;20108;-66
2022/10/31 01:38:46;;;;;;;56.95;34.95;;;;;;;;;;5055984;28;20039;-66
2022/10/31 01:41:14;;;;;;;67.63;36.78;;;;;;;;;;5055497;28;20386;-66
2022/10/31 01:43:57;;;;;;;57.67;34.72;;;;;;;;;;5055814;28;20044;-66
2022/10/31 01:46:29;;;;;;;60.78;35.15;;;;;;;;;;5055555;28;20052;-65
2022/10/31 01:48:57;;;;;;;66.47;35.40;;;;;;;;;;5055570;28;20048;-66
2022/10/31 01:51:29;;;;;;;81.55;37.70;;;;;;;;;;5055580;28;20362;-66
2022/10/31 01:53:59;;;;;;;97.63;39.85;;;;;;;;;;5055586;28;20059;-65
2022/10/31 01:56:25;;;;;;;98.80;40.03;;;;;;;;;;5055303;28;20093;-65
2022/10/31 01:58:52;;;;;;;76.05;42.33;;;;;;;;;;5055372;28;20021;-65
2022/10/31 02:01:18;;;;;;;76.35;43.55;;;;;;;;;;5055400;28;20091;-66
2022/10/31 02:03:45;;;;;;;81.82;43.63;;;;;;;;;;5055375;28;20124;-66
2022/10/31 02:06:22;;;;;;;105.45;43.80;;;;;;;;;;5055291;28;20028;-65
2022/10/31 02:08:48;;;;;;;158.07;49.22;;;;;;;;;;5055348;28;20029;-65
2022/10/31 02:11:14;;;;;;;157.73;54.20;;;;;;;;;;5054906;28;20028;-70
2022/10/31 02:13:40;;;;;;;131.98;53.38;;;;;;;;;;5055019;28;20025;-66
2022/10/31 02:16:05;;;;;;;181.43;57.30;;;;;;;;;;5055089;28;20029;-66
2022/10/31 02:18:31;;;;;;;103.75;53.08;;;;;;;;;;5055047;28;20025;-65
2022/10/31 02:21:18;;;;;;;109.68;50.85;;;;;;;;;;5054798;28;20025;-65
2022/10/31 02:24:11;;;;;;;132.02;52.03;;;;;;;;;;5055081;28;20420;-66
2022/10/31 02:26:58;;;;;;;134.93;58.35;;;;;;;;;;5054895;28;20029;-66
2022/10/31 02:29:54;;;;;;;174.88;58.72;;;;;;;;;;5054754;28;20386;-67
2022/10/31 02:32:44;;;;;;;169.98;52.67;;;;;;;;;;5054877;28;20033;-66
2022/10/31 02:35:14;;;;;;;118.80;52.40;;;;;;;;;;5054942;28;20094;-75
2022/10/31 02:37:55;;;;;;;121.70;54.08;;;;;;;;;;5054874;28;20041;-66
2022/10/31 02:40:29;;;;;;;131.75;53.72;;;;;;;;;;5053510;28;20032;-66
2022/10/31 02:43:17;;;;;;;101.45;51.65;;;;;;;;;;5053399;28;20099;-66
2022/10/31 02:45:53;;;;;;;107.75;52.90;;;;;;;;;;5052581;28;20024;-65
2022/10/31 02:48:23;;;;;;;122.03;52.58;;;;;;;;;;5053011;28;20588;-66
2022/10/31 02:50:52;;;;;;;;;;;;;;;;;;5051396;28;20024;-66
2022/10/31 02:53:17;;;;;;;133.73;48.15;;;;;;;;;;5052706;28;20496;-66
2022/10/31 02:56:19;;;;;;;149.07;53.20;;;;;;;;;;5052915;28;20051;-66
2022/10/31 02:58:57;;;;;;;155.70;56.85;;;;;;;;;;5053132;28;20025;-65
2022/10/31 03:01:25;;;;;;;169.30;58.05;;;;;;;;;;5052779;28;20017;-66
2022/10/31 03:03:59;;;;;;;146.05;61.95;;;;;;;;;;5052814;28;20075;-66
2022/10/31 03:06:33;;;;;;;162.88;62.75;;;;;;;;;;5050173;28;20025;-65
2022/10/31 03:09:20;;;;;;;136.65;55.22;;;;;;;;;;5052614;28;20020;-66
2022/10/31 03:11:51;;;;;;;133.63;48.92;;;;;;;;;;5050038;28;20025;-66
2022/10/31 03:14:40;;;;;;;137.80;52.00;;;;;;;;;;5052546;28;20107;-65
2022/10/31 03:17:11;;;;;;;167.23;53.63;;;;;;;;;;5052354;28;20036;-66
2022/10/31 03:19:40;;;;;;;179.27;57.88;;;;;;;;;;5052539;28;20017;-66
2022/10/31 03:22:23;;;;;;;127.37;54.97;;;;;;;;;;5049892;28;20107;-66
2022/10/31 03:24:50;;;;;;;193.95;52.30;;;;;;;;;;5050106;28;20506;-65
2022/10/31 03:27:20;;;;;;;170.85;51.58;;;;;;;;;;5051597;28;20040;-66
2022/10/31 03:29:49;;;;;;;172.05;49.80;;;;;;;;;;5049821;28;20029;-66
2022/10/31 03:32:25;;;;;;;247.02;53.00;;;;;;;;;;5052202;28;20029;-66
2022/10/31 03:34:53;;;;;;;227.30;49.47;;;;;;;;;;5050371;28;20025;-66
2022/10/31 03:37:20;;;;;;;214.50;47.13;;;;;;;;;;5051942;28;20055;-66
2022/10/31 03:39:48;;;;;;;185.60;48.28;;;;;;;;;;5049616;28;20021;-65
2022/10/31 03:42:18;;;;;;;177.45;48.40;;;;;;;;;;5052768;28;20033;-66
2022/10/31 03:44:51;;;;;;;178.55;49.60;;;;;;;;;;5053188;28;20028;-67
2022/10/31 03:47:16;;;;;;;181.05;49.45;;;;;;;;;;5052807;28;20052;-67
2022/10/31 03:49:42;;;;;;;232.70;51.10;;;;;;;;;;5053218;28;20040;-66
2022/10/31 03:52:13;;;;;;;219.55;47.90;;;;;;;;;;5052652;28;20087;-66
2022/10/31 03:54:45;;;;;;;209.32;46.53;;;;;;;;;;5053010;28;20051;-66
2022/10/31 03:57:10;;;;;;;172.70;43.28;;;;;;;;;;5052265;28;20457;-66
2022/10/31 03:59:44;;;;;;;143.18;43.72;;;;;;;;;;5052745;28;20029;-66
2022/10/31 04:02:18;;;;;;;142.18;49.83;;;;;;;;;;5052774;28;20052;-66
2022/10/31 04:04:44;;;;;;;147.82;44.35;;;;;;;;;;5052823;28;20104;-66
2022/10/31 04:07:11;;;;;;;153.93;45.97;;;;;;;;;;5052428;28;20057;-66
2022/10/31 04:09:40;;;;;;;184.30;50.58;;;;;;;;;;5052616;28;20029;-66
2022/10/31 04:12:10;;;;;;;147.20;47.67;;;;;;;;;;5052302;28;20078;-66
2022/10/31 04:14:39;;;;;;;105.95;45.50;;;;;;;;;;5052380;28;20122;-66
2022/10/31 04:17:09;;;;;;;92.88;44.22;;;;;;;;;;5052326;28;20417;-66
2022/10/31 04:19:34;;;;;;;95.80;43.28;;;;;;;;;;5051883;28;20029;-66
2022/10/31 04:22:01;;;;;;;108.68;44.08;;;;;;;;;;5051761;28;20044;-66
2022/10/31 04:24:26;;;;;;;113.78;47.88;;;;;;;;;;5052079;28;20025;-67
2022/10/31 04:26:51;;;;;;;151.10;49.05;;;;;;;;;;5052212;28;20478;-66
2022/10/31 04:29:17;;;;;;;132.20;47.08;;;;;;;;;;5051978;28;20371;-66
2022/10/31 04:31:42;;;;;;;191.25;52.05;;;;;;;;;;5052373;28;20108;-69
2022/10/31 04:34:08;;;;;;;212.55;54.60;;;;;;;;;;5052348;28;20082;-65
2022/10/31 04:36:33;;;;;;;218.57;54.30;;;;;;;;;;5052152;28;20021;-66
2022/10/31 04:38:59;;;;;;;151.57;50.50;;;;;;;;;;5052219;28;20029;-66
2022/10/31 04:41:24;;;;;;;157.13;49.13;;;;;;;;;;5052415;28;20021;-66
2022/10/31 04:43:50;;;;;;;163.88;51.15;;;;;;;;;;5052238;28;20040;-66
2022/10/31 04:46:15;;;;;;;187.50;48.30;;;;;;;;;;5051498;28;20041;-66
2022/10/31 04:48:41;;;;;;;131.95;46.20;;;;;;;;;;5051652;28;20053;-66
2022/10/31 04:51:06;;;;;;;118.40;46.30;;;;;;;;;;5051301;28;20025;-66
2022/10/31 04:53:32;;;;;;;117.75;47.65;;;;;;;;;;5051672;28;20054;-66
2022/10/31 04:55:59;;;;;;;118.15;45.00;;;;;;;;;;5052211;28;20085;-66
2022/10/31 04:58:25;;;;;;;132.35;45.53;;;;;;;;;;5052203;28;20025;-71
2022/10/31 05:00:55;;;;;;;98.78;43.88;;;;;;;;;;5051912;28;20028;-66
2022/10/31 05:03:20;;;;;;;96.63;43.35;;;;;;;;;;5052159;28;20069;-66
2022/10/31 05:05:46;;;;;;;97.90;45.15;;;;;;;;;;5051993;28;20108;-66
2022/10/31 05:08:11;;;;;;;117.68;43.95;;;;;;;;;;5053559;28;20025;-66
2022/10/31 05:10:37;;;;;;;115.32;43.78;;;;;;;;;;5056135;28;20502;-66
2022/10/31 05:13:04;;;;;;;146.98;42.40;;;;;;;;;;5055607;28;20111;-69
2022/10/31 05:15:30;;;;;;;124.53;41.28;;;;;;;;;;5055319;28;20108;-66
2022/10/31 05:17:56;;;;;;;173.80;44.22;;;;;;;;;;5055317;28;20111;-73
2022/10/31 05:20:25;;;;;;;189.48;42.90;;;;;;;;;;5055012;28;20534;-66
2022/10/31 05:22:54;;;;;;;169.00;44.20;;;;;;;;;;5055833;28;20032;-66
2022/10/31 05:25:21;;;;;;;176.38;42.97;;;;;;;;;;5055848;28;20025;-66
2022/10/31 05:27:49;;;;;;;168.57;45.20;;;;;;;;;;5055471;28;20367;-67
2022/10/31 05:30:19;;;;;;;142.48;44.13;;;;;;;;;;5055817;28;20104;-66
2022/10/31 05:32:48;;;;;;;157.77;47.10;;;;;;;;;;5055467;28;20374;-66
2022/10/31 05:35:16;;;;;;;170.80;45.35;;;;;;;;;;5055797;28;20025;-66
2022/10/31 05:37:41;;;;;;;169.75;44.88;;;;;;;;;;5055832;28;20486;-66
2022/10/31 05:40:09;;;;;;;127.20;42.53;;;;;;;;;;5055524;28;20052;-66
2022/10/31 05:42:35;;;;;;;137.45;44.20;;;;;;;;;;5055214;28;20082;-66
2022/10/31 05:45:00;;;;;;;112.55;42.63;;;;;;;;;;5054892;28;20056;-66
2022/10/31 05:47:26;;;;;;;108.65;42.35;;;;;;;;;;5054417;28;20085;-66
2022/10/31 05:49:51;;;;;;;105.05;42.78;;;;;;;;;;5054760;28;20021;-66
2022/10/31 05:52:17;;;;;;;115.47;41.60;;;;;;;;;;5055049;28;20032;-67
2022/10/31 05:54:43;;;;;;;110.72;41.63;;;;;;;;;;5053930;28;20481;-66
2022/10/31 05:57:08;;;;;;;90.70;40.25;;;;;;;;;;5056075;28;20367;-66
2022/10/31 05:59:34;;;;;;;98.65;39.33;;;;;;;;;;5055263;28;20035;-66
2022/10/31 06:01:59;;;;;;;112.90;40.53;;;;;;;;;;5054813;28;20044;-67
2022/10/31 06:04:25;;;;;;;91.82;36.30;;;;;;;;;;5055145;28;20036;-67
2022/10/31 06:06:50;;;;;;;84.85;37.70;;;;;;;;;;5055031;28;20028;-67
2022/10/31 06:09:16;;;;;;;110.25;39.25;;;;;;;;;;5055359;28;20112;-66
2022/10/31 06:11:41;;;;;;;84.65;36.35;;;;;;;;;;5054440;28;20502;-66
2022/10/31 06:14:07;;;;;;;92.88;38.92;;;;;;;;;;5054385;28;20035;-66
2022/10/31 06:16:32;;;;;;;113.47;38.03;;;;;;;;;;5054152;28;20029;-66
2022/10/31 06:18:58;;;;;;;90.82;38.13;;;;;;;;;;5053656;28;20024;-67
2022/10/31 06:21:24;;;;;;;83.68;35.28;;;;;;;;;;5054828;28;20021;-66
2022/10/31 06:23:49;;;;;;;84.07;33.60;;;;;;;;;;5054863;28;20021;-67
2022/10/31 06:26:15;;;;;;;83.18;34.67;;;;;;;;;;5054232;28;20033;-67
2022/10/31 06:28:40;;;;;;;73.40;37.60;;;;;;;;;;5053705;28;20040;-67
2022/10/31 06:31:06;;;;;;;68.72;35.10;;;;;;;;;;5053660;28;20424;-67
2022/10/31 06:33:31;;;;;;;71.65;35.28;;;;;;;;;;5053740;28;20048;-66
2022/10/31 06:35:57;;;;;;;69.53;32.65;;;;;;;;;;5054088;28;20064;-67
2022/10/31 06:38:22;;;;;;;60.22;32.10;;;;;;;;;;5054094;28;20021;-67
2022/10/31 06:40:48;;;;;;;60.88;30.60;;;;;;;;;;5054443;28;20074;-66
2022/10/31 06:43:14;;;;;;;60.40;31.30;;;;;;;;;;5054258;28;20025;-66
2022/10/31 06:45:40;;;;;;;55.92;28.98;;;;;;;;;;5053865;28;20173;-66
2022/10/31 06:48:06;;;;;;;58.88;27.67;;;;;;;;;;5054082;28;20056;-66
2022/10/31 06:50:31;;;;;;;59.45;30.25;;;;;;;;;;5054279;28;20374;-67
2022/10/31 06:52:58;;;;;;;47.90;27.98;;;;;;;;;;5054064;28;20127;-66
2022/10/31 06:55:25;;;;;;;51.65;27.80;;;;;;;;;;5053980;28;20489;-72
2022/10/31 06:57:56;;;;;;;46.28;25.30;;;;;;;;;;5053600;28;20029;-66
2022/10/31 07:00:22;;;;;;;38.22;20.95;;;;;;;;;;5053348;28;20036;-66
2022/10/31 07:03:02;;;;;;;34.75;19.92;;;;;;;;;;5053011;28;20482;-66
2022/10/31 07:05:29;;;;;;;30.75;18.60;;;;;;;;;;5053748;28;20382;-66
2022/10/31 07:08:03;;;;;;;29.10;16.23;;;;;;;;;;5053776;28;20032;-67
2022/10/31 07:10:30;;;;;;;31.50;17.52;;;;;;;;;;5054043;28;20581;-66
2022/10/31 07:12:58;;;;;;;24.00;15.43;;;;;;;;;;5053917;28;20382;-66
2022/10/31 07:15:24;;;;;;;17.23;12.10;;;;;;;;;;5053613;28;20104;-66
2022/10/31 07:17:50;;;;;;;16.52;10.30;;;;;;;;;;5053799;28;20035;-66
2022/10/31 07:20:16;;;;;;;19.77;11.50;;;;;;;;;;5053781;28;20029;-67
2022/10/31 07:22:42;;;;;;;28.13;13.10;;;;;;;;;;5053790;28;20544;-66
2022/10/31 07:25:08;;;;;;;22.67;12.57;;;;;;;;;;5053521;28;20437;-66
2022/10/31 07:27:41;;;;;;;19.75;11.85;;;;;;;;;;5052434;28;20033;-66
2022/10/31 07:30:09;;;;;;;25.38;13.23;;;;;;;;;;5052012;28;20031;-66
2022/10/31 07:32:39;;;;;;;32.13;12.90;;;;;;;;;;5052425;28;20428;-66
2022/10/31 07:35:05;;;;;;;25.30;13.13;;;;;;;;;;5052924;28;20415;-66
2022/10/31 07:37:31;;;;;;;28.75;13.10;;;;;;;;;;5053157;28;20033;-66
2022/10/31 07:39:56;;;;;;;26.50;15.15;;;;;;;;;;5053338;28;20056;-66
2022/10/31 07:42:21;;;;;;;23.65;12.95;;;;;;;;;;5053214;28;20028;-66
2022/10/31 07:44:47;;;;;;;21.08;12.93;;;;;;;;;;5053049;28;20099;-66
2022/10/31 07:47:12;;;;;;;21.45;11.88;;;;;;;;;;5052853;28;20088;-66
2022/10/31 07:49:38;;;;;;;19.92;10.85;;;;;;;;;;5053045;28;20029;-67
2022/10/31 07:52:03;;;;;;;16.63;9.70;;;;;;;;;;5053010;28;20511;-67
2022/10/31 07:54:29;;;;;;;18.63;10.40;;;;;;;;;;5053130;28;20029;-66
2022/10/31 07:56:54;;;;;;;15.98;9.73;;;;;;;;;;5052517;28;20021;-66
2022/10/31 07:59:20;;;;;;;16.00;10.00;;;;;;;;;;5052137;28;20029;-67
2022/10/31 08:01:45;;;;;;;13.73;9.18;;;;;;;;;;5052202;28;20036;-67
2022/10/31 08:04:11;;;;;;;14.82;9.27;;;;;;;;;;5052186;28;20071;-66
2022/10/31 08:06:36;;;;;;;26.42;10.57;;;;;;;;;;5052612;28;20033;-67
2022/10/31 08:09:02;;;;;;;16.17;9.73;;;;;;;;;;5053042;28;20027;-66
2022/10/31 08:11:27;;;;;;;17.73;9.50;;;;;;;;;;5052634;28;20017;-67
2022/10/31 08:13:52;;;;;;;14.43;8.85;;;;;;;;;;5052369;28;20474;-67
2022/10/31 08:16:18;;;;;;;15.85;9.43;;;;;;;;;;5052720;28;20107;-66
2022/10/31 08:18:43;;;;;;;15.68;9.13;;;;;;;;;;5052558;28;20108;-66
2022/10/31 08:21:10;;;;;;;13.10;8.68;;;;;;;;;;5052553;28;20529;-67
2022/10/31 08:23:35;;;;;;;18.15;8.90;;;;;;;;;;5052167;28;20120;-67
2022/10/31 08:26:01;;;;;;;20.27;8.80;;;;;;;;;;5052473;28;20048;-67
2022/10/31 08:28:26;;;;;;;17.05;8.93;;;;;;;;;;5052591;28;20080;-66
2022/10/31 08:30:52;;;;;;;16.38;8.85;;;;;;;;;;5052621;28;20024;-67
2022/10/31 08:33:18;;;;;;;19.15;9.45;;;;;;;;;;5052411;28;20469;-67
2022/10/31 08:35:44;;;;;;;17.63;9.27;;;;;;;;;;5052662;28;20028;-67
2022/10/31 08:38:11;;;;;;;19.60;9.27;;;;;;;;;;5052672;28;20497;-67
2022/10/31 08:40:36;;;;;;;22.05;11.05;;;;;;;;;;5052791;28;20523;-66
2022/10/31 08:43:03;;;;;;;22.98;8.18;;;;;;;;;;5052329;28;20159;-67
2022/10/31 08:45:30;;;;;;;15.90;8.48;;;;;;;;;;5052262;28;20025;-67
2022/10/31 08:47:57;;;;;;;18.13;8.82;;;;;;;;;;5052410;28;20029;-67
2022/10/31 08:50:23;;;;;;;25.00;8.10;;;;;;;;;;5052662;28;20074;-67
2022/10/31 08:52:48;;;;;;;19.08;8.38;;;;;;;;;;5052452;28;20021;-67
2022/10/31 08:55:14;;;;;;;19.58;9.38;;;;;;;;;;5051497;28;20079;-67
2022/10/31 08:57:39;;;;;;;16.05;8.60;;;;;;;;;;5050868;28;20029;-67
2022/10/31 09:00:06;;;;;;;22.13;9.65;;;;;;;;;;5051768;28;20048;-67
2022/10/31 09:02:31;;;;;;;19.85;9.68;;;;;;;;;;5052309;28;20147;-67
2022/10/31 09:04:57;;;;;;;20.08;9.88;;;;;;;;;;5051985;28;20056;-67
2022/10/31 09:07:22;;;;;;;26.13;11.07;;;;;;;;;;5052016;28;20056;-67
2022/10/31 09:09:48;;;;;;;23.02;11.13;;;;;;;;;;5052421;28;20053;-67
2022/10/31 09:12:13;;;;;;;26.63;11.45;;;;;;;;;;5052008;28;20495;-66
2022/10/31 09:14:39;;;;;;;16.40;10.30;;;;;;;;;;5052273;28;20385;-67
2022/10/31 09:17:04;;;;;;;18.23;10.32;;;;;;;;;;5051781;28;20467;-67
2022/10/31 09:19:30;;;;;;;24.10;10.57;;;;;;;;;;5052329;28;20036;-66
2022/10/31 09:21:55;;;;;;;16.70;10.15;;;;;;;;;;5052103;28;20024;-69
2022/10/31 09:24:21;;;;;;;18.27;10.60;;;;;;;;;;5052442;28;20032;-66
2022/10/31 09:26:47;;;;;;;17.77;10.10;;;;;;;;;;5051897;28;20032;-69
2022/10/31 09:29:13;;;;;;;21.65;10.52;;;;;;;;;;5051890;28;20021;-66
2022/10/31 09:31:38;;;;;;;21.58;9.82;;;;;;;;;;5051707;28;20037;-66
2022/10/31 09:34:03;;;;;;;18.20;9.60;;;;;;;;;;5052054;28;20111;-66
2022/10/31 09:36:29;;;;;;;17.35;9.00;;;;;;;;;;5052035;28;20402;-73
2022/10/31 09:38:56;;;;;;;17.08;8.88;;;;;;;;;;5050799;28;20024;-77
2022/10/31 09:41:29;;;;;;;19.20;9.02;;;;;;;;;;5051365;28;20025;-66
2022/10/31 09:44:24;;;;;;;16.55;8.35;;;;;;;;;;5052124;28;20036;-67
2022/10/31 09:47:22;;;;;;;24.13;8.65;;;;;;;;;;5051900;28;20045;-70
2022/10/31 09:50:14;;;;;;;14.43;7.85;;;;;;;;;;5050748;28;20041;-68
2022/10/31 09:52:48;;;;;;;21.30;8.55;;;;;;;;;;5050232;28;20021;-68
2022/10/31 09:55:26;;;;;;;17.05;8.25;;;;;;;;;;5053432;28;20041;-71
2022/10/31 09:57:53;;;;;;;22.08;9.90;;;;;;;;;;5053384;28;20021;-68
2022/10/31 10:00:21;;;;;;;17.42;10.05;;;;;;;;;;5055005;28;20025;-68
2022/10/31 10:02:53;;;;;;;18.45;9.85;;;;;;;;;;5054863;28;20521;-68
2022/10/31 10:05:24;;;;;;;20.02;9.32;;;;;;;;;;5055044;28;20095;-68
2022/10/31 10:08:08;;;;;;;26.88;10.38;;;;;;;;;;5052267;28;20025;-68
2022/10/31 10:10:46;;;;;;;21.83;9.50;;;;;;;;;;5052924;28;20036;-68
2022/10/31 10:13:53;;;;;;;22.00;9.32;;;;;;;;;;5053095;28;20070;-66
2022/10/31 10:16:24;;;;;;;24.02;10.27;;;;;;;;;;5040642;28;20025;-66
2022/10/31 10:19:04;;;;;;;17.73;8.85;;;;;;;;;;5033079;28;20394;-66
2022/10/31 10:21:57;;;;;;;22.20;10.13;;;;;;;;;;5032967;28;20446;-67
2022/10/31 10:24:25;;;;;;;19.13;10.10;;;;;;;;;;5032789;28;20029;-66
2022/10/31 10:27:04;;;;;;;20.00;9.57;;;;;;;;;;5032557;28;20050;-66
2022/10/31 10:29:49;;;;;;;20.55;9.55;;;;;;;;;;5058976;28;20024;-69
2022/10/31 10:32:23;;;;;;;16.75;9.25;;;;;;;;;;5061041;28;20538;-66
2022/10/31 10:34:57;;;;;;;24.83;10.38;;;;;;;;;;5068683;28;20040;-66
2022/10/31 10:37:36;;;;;;;20.10;11.02;;;;;;;;;;5037634;28;20025;-66
2022/10/31 10:40:16;;;;;;;20.92;9.50;;;;;;;;;;5043695;28;20478;-66
2022/10/31 10:48:20;;;;;;;18.75;9.48;;;;;;;;;;5044422;28;20445;-66
2022/10/31 10:50:51;;;;;;;17.67;9.20;;;;;;;;;;5063851;28;20028;-66
2022/10/31 10:53:21;;;;;;;21.27;9.55;;;;;;;;;;5040204;28;20056;-66
2022/10/31 10:56:30;;;;;;;20.50;9.63;;;;;;;;;;5066965;28;20037;-67
2022/10/31 10:58:56;;;;;;;15.98;9.70;;;;;;;;;;5012159;28;20042;-66
2022/10/31 11:01:22;;;;;;;22.60;9.90;;;;;;;;;;5012330;28;20030;-66
2022/10/31 11:03:47;;;;;;;20.42;9.55;;;;;;;;;;5012415;28;20046;-66
2022/10/31 11:06:25;;;;;;;24.52;11.10;;;;;;;;;;5011860;28;20083;-67
2022/10/31 11:08:51;;;;;;;21.15;9.68;;;;;;;;;;5012011;28;20128;-66
2022/10/31 11:11:17;;;;;;;16.52;9.55;;;;;;;;;;5011956;28;20148;-66
2022/10/31 11:13:45;;;;;;;26.48;10.65;;;;;;;;;;5012187;28;20121;-67
2022/10/31 11:16:14;;;;;;;19.05;9.20;;;;;;;;;;5012028;28;20042;-66
2022/10/31 11:18:44;;;;;;;20.43;9.93;;;;;;;;;;5011932;28;20025;-67
2022/10/31 11:21:27;;;;;;;21.58;9.60;;;;;;;;;;5011658;28;20066;-67
2022/10/31 11:24:11;;;;;;;21.10;9.85;;;;;;;;;;5012070;28;20030;-66
2022/10/31 11:26:41;;;;;;;18.17;10.05;;;;;;;;;;5011672;28;20026;-67
2022/10/31 11:29:15;;;;;;;25.13;10.52;;;;;;;;;;5005345;28;20537;-66
2022/10/31 11:31:41;;;;;;;26.40;11.13;;;;;;;;;;5011311;28;20041;-67
2022/10/31 11:34:15;;;;;;;22.95;11.05;;;;;;;;;;5029157;28;20036;-72
2022/10/31 11:36:44;;;;;;;23.30;11.00;;;;;;;;;;5068462;28;20021;-67
2022/10/31 11:39:22;;;;;;;23.25;12.60;;;;;;;;;;5056712;28;20053;-70
2022/10/31 11:41:50;;;;;;;26.20;11.48;;;;;;;;;;5065293;28;20020;-67
2022/10/31 11:44:28;;;;;;;25.48;10.50;;;;;;;;;;5065007;28;20032;-67
2022/10/31 11:47:01;;;;;;;25.73;10.82;;;;;;;;;;5056327;28;20127;-71
2022/10/31 11:49:36;;;;;;;21.58;10.85;;;;;;;;;;5068167;28;20450;-67
2022/10/31 11:52:16;;;;;;;25.17;11.60;;;;;;;;;;5045420;28;20079;-71
2022/10/31 11:55:01;;;;;;;20.23;10.23;;;;;;;;;;5048426;28;20028;-69
2022/10/31 11:57:45;;;;;;;22.00;10.43;;;;;;;;;;5042146;28;20028;-67
2022/10/31 12:00:37;;;;;;;21.60;10.48;;;;;;;;;;5069176;28;20029;-66
2022/10/31 12:03:06;;;;;;;22.77;10.88;;;;;;;;;;5054258;28;20071;-66
2022/10/31 12:05:32;;;;;;;28.50;11.13;;;;;;;;;;5066897;28;20218;-72
2022/10/31 12:07:58;;;;;;;30.33;11.65;;;;;;;;;;5062006;28;20029;-69
2022/10/31 12:10:35;;;;;;;28.00;10.65;;;;;;;;;;5059772;28;20074;-65
2022/10/31 12:13:28;;;;;;;18.20;9.93;;;;;;;;;;5069245;28;20481;-65
2022/10/31 12:16:17;;;;;;;26.13;11.38;;;;;;;;;;5054511;28;20021;-65
2022/10/31 12:19:09;;;;;;;29.92;11.95;;;;;;;;;;5056665;28;20028;-66
2022/10/31 12:21:48;;;;;;;21.42;11.25;;;;;;;;;;5052997;28;20060;-76
2022/10/31 12:24:42;;;;;;;24.15;10.93;;;;;;;;;;5049797;28;20029;-65
2022/10/31 12:27:32;;;;;;;19.88;9.88;;;;;;;;;;5049742;28;20033;-65
2022/10/31 12:30:26;;;;;;;22.05;10.82;;;;;;;;;;5048397;28;20390;-65
2022/10/31 12:33:10;;;;;;;25.13;11.68;;;;;;;;;;5051721;28;20013;-65
2022/10/31 12:35:49;;;;;;;23.77;12.52;;;;;;;;;;5049523;28;20494;-65
2022/10/31 12:38:20;;;;;;;25.98;12.30;;;;;;;;;;5049787;28;20059;-75
2022/10/31 12:40:55;;;;;;;23.05;11.77;;;;;;;;;;5052219;28;20570;-67
2022/10/31 12:43:51;;;;;;;20.73;12.48;;;;;;;;;;5052595;28;20108;-64
2022/10/31 12:46:25;;;;;;;28.60;12.30;;;;;;;;;;5052300;28;20567;-64
2022/10/31 12:48:53;;;;;;;24.98;12.65;;;;;;;;;;5052168;28;20025;-64
2022/10/31 12:51:33;;;;;;;24.38;13.32;;;;;;;;;;5049900;28;20387;-73
2022/10/31 12:54:01;;;;;;;24.52;13.57;;;;;;;;;;5049553;28;20456;-64
2022/10/31 12:56:29;;;;;;;26.23;14.43;;;;;;;;;;5052422;28;20546;-65
2022/10/31 12:59:02;;;;;;;28.05;15.00;;;;;;;;;;5052439;28;20111;-64
2022/10/31 13:01:39;;;;;;;28.38;15.20;;;;;;;;;;5051931;28;20031;-65
2022/10/31 13:04:13;;;;;;;28.75;14.90;;;;;;;;;;5050120;28;20025;-65
2022/10/31 13:06:48;;;;;;;28.83;14.57;;;;;;;;;;5038359;28;20026;-64
2022/10/31 13:09:19;;;;;;;25.35;13.93;;;;;;;;;;5052344;28;20021;-69
2022/10/31 13:12:08;;;;;;;32.13;14.18;;;;;;;;;;5032723;28;20022;-65
2022/10/31 13:14:41;;;;;;;25.27;13.50;;;;;;;;;;5032525;28;20056;-64
2022/10/31 13:17:16;;;;;;;27.95;13.65;;;;;;;;;;5032297;28;20033;-64
2022/10/31 13:19:44;;;;;;;27.13;13.25;;;;;;;;;;5032345;28;20045;-65
2022/10/31 13:22:17;;;;;;;27.95;13.85;;;;;;;;;;5032401;28;20471;-73
2022/10/31 13:24:55;;;;;;;28.35;13.98;;;;;;;;;;5031823;28;20068;-64
2022/10/31 13:27:23;;;;;;;28.52;14.40;;;;;;;;;;5034490;28;20125;-73
2022/10/31 13:30:24;;;;;;;30.40;15.15;;;;;;;;;;5054364;28;20062;-64
2022/10/31 13:32:52;;;;;;;25.67;14.18;;;;;;;;;;5013951;28;20116;-65
2022/10/31 13:35:39;;;;;;;25.75;13.35;;;;;;;;;;5014069;28;20048;-64
2022/10/31 13:38:16;;;;;;;30.15;14.75;;;;;;;;;;5013981;28;20034;-73
2022/10/31 13:40:51;;;;;;;30.48;15.45;;;;;;;;;;5013994;28;20038;-64
2022/10/31 13:43:28;;;;;;;29.60;14.02;;;;;;;;;;5014082;28;20029;-65
2022/10/31 13:45:55;;;;;;;24.10;15.23;;;;;;;;;;5013468;28;20061;-70
2022/10/31 13:48:35;;;;;;;26.05;15.60;;;;;;;;;;5013586;28;20049;-69
2022/10/31 13:51:02;;;;;;;;;;;;;;;;;;5014372;28;20034;-65
2022/10/31 13:53:56;;;;;;;30.63;15.02;;;;;;;;;;5013514;28;20472;-65
2022/10/31 13:56:29;;;;;;;28.83;16.17;;;;;;;;;;5008822;28;20458;-65
2022/10/31 13:59:09;;;;;;;31.75;18.45;;;;;;;;;;4994124;28;20045;-65
2022/10/31 14:01:35;;;;;;;;;;;;;;;;;;4994209;28;20145;-67
2022/10/31 14:04:07;;;;;;;41.22;22.15;;;;;;;;;;4993775;28;20001;-65
2022/10/31 14:07:02;;;;;;;41.75;21.42;;;;;;;;;;5010523;28;20030;-65
2022/10/31 14:09:32;;;;;;;38.88;20.95;;;;;;;;;;5031180;28;20573;-65
2022/10/31 14:12:01;;;;;;;41.92;23.23;;;;;;;;;;5035024;28;20116;-65
2022/10/31 14:14:39;;;;;;;39.07;23.30;;;;;;;;;;5035112;28;20095;-65
2022/10/31 14:17:06;;;;;;;44.58;24.48;;;;;;;;;;5035203;28;20263;-69
2022/10/31 14:19:31;;;;;;;41.95;24.70;;;;;;;;;;5035016;28;20076;-65
2022/10/31 14:21:57;;;;;;;45.92;25.20;;;;;;;;;;5034880;28;20473;-67
2022/10/31 14:24:23;;;;;;;44.05;23.83;;;;;;;;;;5035216;28;20068;-68
2022/10/31 14:26:59;;;;;;;47.85;25.75;;;;;;;;;;5034995;28;20057;-65
2022/10/31 14:29:32;;;;;;;46.13;25.30;;;;;;;;;;5034664;28;20022;-65
2022/10/31 14:32:25;;;;;;;47.38;24.27;;;;;;;;;;5035127;28;20352;-65
2022/10/31 14:34:55;;;;;;;49.45;25.75;;;;;;;;;;5034655;28;20029;-64
2022/10/31 14:37:38;;;;;;;54.80;26.50;;;;;;;;;;5034851;28;20025;-65
2022/10/31 14:40:31;;;;;;;61.95;30.13;;;;;;;;;;5049607;28;20025;-65
2022/10/31 14:43:24;;;;;;;57.75;28.58;;;;;;;;;;5074891;28;20029;-65